createdAt,value
2023-03-13T00:00:06.540Z,8.02
2023-03-13T00:02:40.057Z,6.25
2023-03-13T00:05:11.364Z,3.30
2023-03-13T00:07:42.923Z,3.67
2023-03-13T00:10:14.140Z,5.80
2023-03-13T00:12:45.227Z,6.65
2023-03-13T00:15:16.100Z,5.18
2023-03-13T00:17:49.283Z,6.65
2023-03-13T00:20:20.256Z,3.88
2023-03-13T00:22:50.792Z,3.17
2023-03-13T00:25:21.329Z,4.80
2023-03-13T00:27:52.193Z,3.92
2023-03-13T00:30:22.905Z,3.90
2023-03-13T00:32:56.205Z,2.53
2023-03-13T00:35:26.919Z,1.67
2023-03-13T00:37:57.871Z,2.25
2023-03-13T00:40:28.625Z,5.18
2023-03-13T00:43:02.220Z,3.25
2023-03-13T00:45:33.370Z,2.08
2023-03-13T00:48:08.168Z,2.40
2023-03-13T00:50:38.858Z,3.90
2023-03-13T00:53:09.513Z,6.47
2023-03-13T00:55:40.280Z,6.63
2023-03-13T00:58:10.785Z,3.33
2023-03-13T01:00:41.377Z,4.03
2023-03-13T01:03:15.169Z,5.18
2023-03-13T01:05:46.036Z,2.45
2023-03-13T01:08:16.530Z,3.47
2023-03-13T01:10:47.186Z,3.25
2023-03-13T01:13:17.997Z,3.00
2023-03-13T01:15:48.477Z,6.22
2023-03-13T01:18:21.631Z,6.28
2023-03-13T01:20:52.169Z,6.35
2023-03-13T01:23:22.741Z,4.80
2023-03-13T01:25:53.316Z,4.15
2023-03-13T01:28:24.116Z,6.70
2023-03-13T01:30:55.211Z,6.50
2023-03-13T01:33:28.845Z,6.15
2023-03-13T01:36:04.957Z,6.50
2023-03-13T01:38:35.762Z,4.00
2023-03-13T01:41:06.995Z,3.50
2023-03-13T01:43:39.648Z,6.00
2023-03-13T01:46:19.095Z,4.28
2023-03-13T01:49:28.290Z,10.43
2023-03-13T01:52:13.059Z,4.78
2023-03-13T01:54:54.797Z,5.43
2023-03-13T01:57:28.785Z,4.00
2023-03-13T02:00:05.163Z,2.42
2023-03-13T02:02:47.678Z,3.80
2023-03-13T02:05:24.086Z,1.65
2023-03-13T02:08:00.046Z,2.17
2023-03-13T02:10:32.987Z,2.63
2023-03-13T02:13:05.840Z,2.30
2023-03-13T02:15:37.551Z,4.28
2023-03-13T02:18:08.242Z,3.08
2023-03-13T02:20:43.245Z,4.05
2023-03-13T02:23:22.733Z,1.20
2023-03-13T02:25:56.775Z,2.83
2023-03-13T02:28:39.324Z,3.30
2023-03-13T02:31:14.200Z,1.75
2023-03-13T02:33:46.594Z,2.28
2023-03-13T02:36:21.548Z,2.83
2023-03-13T02:38:56.801Z,4.28
2023-03-13T02:41:32.021Z,2.15
2023-03-13T02:44:03.457Z,1.98
2023-03-13T02:46:34.881Z,4.32
2023-03-13T02:49:22.691Z,2.03
2023-03-13T02:51:55.668Z,2.10
2023-03-13T02:54:30.488Z,2.92
2023-03-13T02:57:06.427Z,2.80
2023-03-13T02:59:38.033Z,2.33
2023-03-13T03:02:08.839Z,5.78
2023-03-13T03:04:40.871Z,4.53
2023-03-13T03:07:13.162Z,2.92
2023-03-13T03:09:44.315Z,2.25
2023-03-13T03:12:23.659Z,1.85
2023-03-13T03:14:54.275Z,3.70
2023-03-13T03:17:25.911Z,6.45
2023-03-13T03:19:57.368Z,4.22
2023-03-13T03:22:27.847Z,1.65
2023-03-13T03:24:58.484Z,11.25
2023-03-13T03:27:32.069Z,4.20
2023-03-13T03:30:02.672Z,4.78
2023-03-13T03:32:33.631Z,2.88
2023-03-13T03:35:04.559Z,2.30
2023-03-13T03:37:35.076Z,5.00
2023-03-13T03:40:09.877Z,3.55
2023-03-13T03:42:43.270Z,3.67
2023-03-13T03:45:14.582Z,3.80
2023-03-13T03:47:45.092Z,2.00
2023-03-13T03:50:15.738Z,2.90
2023-03-13T03:52:56.642Z,2.28
2023-03-13T03:55:28.957Z,2.45
2023-03-13T03:58:02.757Z,4.93
2023-03-13T04:00:59.108Z,3.13
2023-03-13T04:03:30.555Z,2.53
2023-03-13T04:06:01.594Z,3.20
2023-03-13T04:08:32.916Z,4.07
2023-03-13T04:11:03.931Z,3.95
2023-03-13T04:13:42.231Z,2.90
2023-03-13T04:16:13.875Z,3.17
2023-03-13T04:18:45.285Z,2.40
2023-03-13T04:21:16.227Z,4.30
2023-03-13T04:23:51.498Z,4.07
2023-03-13T04:26:22.221Z,5.70
2023-03-13T04:28:58.548Z,6.95
2023-03-13T04:32:08.196Z,3.25
2023-03-13T04:34:46.861Z,3.10
2023-03-13T04:37:24.530Z,10.75
2023-03-13T04:40:15.454Z,4.68
2023-03-13T04:43:06.364Z,3.28
2023-03-13T04:46:04.557Z,3.35
2023-03-13T04:48:50.049Z,6.43
2023-03-13T04:51:41.268Z,2.88
2023-03-13T04:54:22.467Z,2.63
2023-03-13T04:57:13.616Z,2.53
2023-03-13T05:00:10.290Z,2.58
2023-03-13T05:03:09.577Z,3.38
2023-03-13T05:05:54.230Z,4.47
2023-03-13T05:08:43.411Z,2.25
2023-03-13T05:11:33.056Z,6.55
2023-03-13T05:14:09.186Z,2.85
2023-03-13T05:16:54.474Z,3.83
2023-03-13T05:19:56.591Z,2.92
2023-03-13T05:22:38.561Z,4.53
2023-03-13T05:25:09.582Z,2.63
2023-03-13T05:27:59.164Z,1.85
2023-03-13T05:30:50.022Z,5.50
2023-03-13T05:33:49.710Z,5.20
2023-03-13T05:36:41.296Z,3.55
2023-03-13T05:39:30.778Z,2.40
2023-03-13T05:42:15.228Z,1.33
2023-03-13T05:44:55.122Z,2.97
2023-03-13T05:47:44.588Z,2.50
2023-03-13T05:50:35.374Z,4.05
2023-03-13T05:53:27.221Z,2.58
2023-03-13T05:56:13.478Z,4.97
2023-03-13T05:58:46.677Z,3.25
2023-03-13T06:01:33.261Z,2.92
2023-03-13T06:04:16.947Z,2.75
2023-03-13T06:06:49.047Z,2.70
2023-03-13T06:09:23.724Z,2.65
2023-03-13T06:11:55.355Z,4.22
2023-03-13T06:14:26.791Z,2.08
2023-03-13T06:17:19.860Z,4.57
2023-03-13T06:19:50.726Z,2.58
2023-03-13T06:22:21.536Z,3.08
2023-03-13T06:24:54.715Z,2.72
2023-03-13T06:27:25.204Z,3.20
2023-03-13T06:29:55.620Z,3.35
2023-03-13T06:32:26.280Z,3.47
2023-03-13T06:34:56.993Z,3.22
2023-03-13T06:37:27.772Z,2.35
2023-03-13T06:40:01.050Z,1.45
2023-03-13T06:42:31.580Z,3.75
2023-03-13T06:45:03.368Z,1.95
2023-03-13T06:47:34.158Z,2.10
2023-03-13T06:50:04.637Z,1.42
2023-03-13T06:52:43.404Z,1.95
2023-03-13T06:55:17.458Z,1.20
2023-03-13T06:57:47.953Z,3.25
2023-03-13T07:00:19.303Z,0.93
2023-03-13T07:02:50.013Z,2.33
2023-03-13T07:05:20.924Z,0.50
2023-03-13T07:07:51.469Z,0.43
2023-03-13T07:10:25.220Z,1.42
2023-03-13T07:15:26.776Z,1.08
2023-03-13T07:17:59.938Z,2.28
2023-03-13T07:20:30.499Z,0.70
2023-03-13T07:23:01.140Z,1.60
2023-03-13T07:25:34.508Z,2.42
2023-03-13T07:28:05.028Z,1.57
2023-03-13T07:30:35.693Z,2.15
2023-03-13T07:33:06.482Z,1.13
2023-03-13T07:35:38.131Z,0.68
2023-03-13T07:38:09.773Z,0.68
2023-03-13T07:40:43.628Z,1.25
2023-03-13T07:43:14.325Z,1.92
2023-03-13T07:45:56.995Z,1.85
2023-03-13T07:48:30.938Z,6.53
2023-03-13T07:51:02.325Z,0.45
2023-03-13T07:53:33.207Z,1.27
2023-03-13T07:56:08.815Z,0.47
2023-03-13T07:58:41.007Z,0.50
2023-03-13T08:01:13.260Z,0.68
2023-03-13T08:03:45.380Z,0.90
2023-03-13T08:06:18.824Z,1.40
2023-03-13T08:08:49.723Z,2.60
2023-03-13T08:11:25.008Z,1.38
2023-03-13T08:13:56.423Z,1.13
2023-03-13T08:16:29.073Z,2.47
2023-03-13T08:19:01.998Z,1.83
2023-03-13T08:21:34.326Z,0.80
2023-03-13T08:24:07.175Z,2.13
2023-03-13T08:26:41.727Z,0.55
2023-03-13T08:29:14.559Z,1.25
2023-03-13T08:31:48.025Z,1.25
2023-03-13T08:34:20.223Z,0.68
2023-03-13T08:36:50.698Z,1.20
2023-03-13T08:39:22.560Z,0.85
2023-03-13T08:41:55.726Z,2.00
2023-03-13T08:44:26.246Z,1.67
2023-03-13T08:46:57.052Z,1.35
2023-03-13T08:49:27.763Z,1.55
2023-03-13T08:51:58.494Z,3.05
2023-03-13T08:54:29.330Z,2.13
2023-03-13T08:57:02.622Z,1.75
2023-03-13T08:59:33.557Z,2.77
2023-03-13T09:02:04.622Z,1.23
2023-03-13T09:04:35.192Z,0.85
2023-03-13T09:07:05.687Z,2.42
2023-03-13T09:09:36.161Z,1.33
2023-03-13T09:12:24.757Z,2.08
2023-03-13T09:15:00.322Z,2.40
2023-03-13T09:17:31.047Z,1.20
2023-03-13T09:20:01.599Z,1.27
2023-03-13T09:22:33.149Z,1.17
2023-03-13T09:25:03.734Z,1.35
2023-03-13T09:27:36.830Z,2.15
2023-03-13T09:30:08.539Z,1.92
2023-03-13T09:32:39.128Z,1.83
2023-03-13T09:35:10.280Z,0.93
2023-03-13T09:41:25.289Z,1.27
2023-03-13T09:44:05.118Z,2.20
2023-03-13T09:46:42.292Z,2.05
2023-03-13T09:49:18.583Z,1.70
2023-03-13T09:51:55.063Z,1.83
2023-03-13T09:54:29.233Z,1.17
2023-03-13T09:59:43.647Z,0.98
2023-03-13T10:02:27.437Z,0.52
2023-03-13T10:05:06.149Z,1.25
2023-03-13T10:07:36.643Z,0.52
2023-03-13T10:10:10.200Z,2.50
2023-03-13T10:12:44.918Z,2.42
2023-03-13T10:15:42.460Z,1.85
2023-03-13T10:18:21.740Z,3.72
2023-03-13T10:20:54.658Z,2.38
2023-03-13T10:23:30.402Z,1.88
2023-03-13T10:26:01.263Z,1.85
2023-03-13T10:28:31.883Z,1.90
2023-03-13T10:31:14.478Z,1.13
2023-03-13T10:33:46.048Z,1.08
2023-03-13T10:36:17.457Z,0.90
2023-03-13T10:38:52.168Z,1.88
2023-03-13T10:41:31.006Z,1.40
2023-03-13T10:44:03.900Z,0.95
2023-03-13T10:46:39.164Z,0.82
2023-03-13T10:49:18.544Z,2.47
2023-03-13T10:51:52.311Z,1.52
2023-03-13T10:54:26.426Z,1.50
2023-03-13T10:57:13.565Z,0.85
2023-03-13T10:59:48.067Z,0.90
2023-03-13T11:02:30.951Z,1.40
2023-03-13T11:05:02.104Z,1.95
2023-03-13T11:07:36.306Z,1.25
2023-03-13T11:12:51.446Z,1.63
2023-03-13T11:15:26.965Z,1.17
2023-03-13T11:18:06.913Z,1.98
2023-03-13T11:20:39.795Z,1.40
2023-03-13T11:23:23.172Z,1.00
2023-03-13T11:26:04.907Z,1.67
2023-03-13T11:28:48.836Z,2.25
2023-03-13T11:31:24.871Z,2.38
2023-03-13T11:34:07.344Z,1.42
2023-03-13T11:36:39.697Z,1.80
2023-03-13T11:39:35.188Z,2.28
2023-03-13T11:42:16.724Z,4.05
2023-03-13T11:44:58.552Z,1.27
2023-03-13T11:47:45.514Z,3.22
2023-03-13T11:50:32.890Z,0.95
2023-03-13T11:53:27.223Z,1.30
2023-03-13T11:56:08.534Z,1.50
2023-03-13T11:58:51.755Z,1.20
2023-03-13T12:01:28.890Z,1.77
2023-03-13T12:04:04.676Z,1.48
2023-03-13T12:06:43.367Z,2.33
2023-03-13T12:09:18.194Z,1.98
2023-03-13T12:11:59.566Z,1.75
2023-03-13T12:14:36.764Z,3.28
2023-03-13T12:17:12.507Z,1.48
2023-03-13T12:19:50.838Z,1.23
2023-03-13T12:22:31.443Z,0.82
2023-03-13T12:25:06.812Z,2.05
2023-03-13T12:27:42.216Z,0.90
2023-03-13T12:30:25.401Z,2.17
2023-03-13T12:33:04.200Z,1.95
2023-03-13T12:35:36.024Z,1.10
2023-03-13T12:38:18.286Z,3.90
2023-03-13T12:40:53.913Z,2.40
2023-03-13T12:43:30.286Z,0.85
2023-03-13T12:46:18.368Z,2.00
2023-03-13T12:49:16.098Z,1.92
2023-03-13T12:52:04.105Z,2.03
2023-03-13T12:54:49.261Z,1.38
2023-03-13T12:57:37.786Z,2.20
2023-03-13T13:00:17.609Z,1.70
2023-03-13T13:02:48.532Z,2.08
2023-03-13T13:05:23.814Z,0.70
2023-03-13T13:07:58.906Z,1.05
2023-03-13T13:10:32.424Z,1.52
2023-03-13T13:13:25.671Z,0.93
2023-03-13T13:16:04.089Z,2.20
2023-03-13T13:18:36.230Z,1.98
2023-03-13T13:21:33.226Z,1.48
2023-03-13T13:24:43.999Z,0.93
2023-03-13T13:27:48.376Z,1.00
2023-03-13T13:30:35.458Z,0.63
2023-03-13T13:33:50.282Z,1.20
2023-03-13T13:36:33.077Z,2.20
2023-03-13T13:39:04.126Z,1.90
2023-03-13T13:41:40.302Z,1.00
2023-03-13T13:44:30.377Z,0.80
2023-03-13T13:47:02.275Z,0.93
2023-03-13T13:49:38.835Z,1.58
2023-03-13T13:52:35.719Z,1.23
2023-03-13T13:55:24.368Z,1.00
2023-03-13T13:58:01.824Z,1.92
2023-03-13T14:00:43.613Z,1.10
2023-03-13T14:03:25.246Z,1.92
2023-03-13T14:05:59.554Z,1.92
2023-03-13T14:08:33.526Z,1.85
2023-03-13T14:14:11.784Z,2.63
2023-03-13T14:16:49.134Z,1.00
2023-03-13T14:19:27.307Z,2.20
2023-03-13T14:22:03.121Z,2.78
2023-03-13T14:24:37.944Z,1.67
2023-03-13T14:27:18.580Z,0.70
2023-03-13T14:30:03.258Z,1.80
2023-03-13T14:32:36.528Z,1.10
2023-03-13T14:35:08.809Z,1.77
2023-03-13T14:37:40.855Z,0.50
2023-03-13T14:40:13.278Z,0.70
2023-03-13T14:42:50.214Z,0.90
2023-03-13T14:45:26.578Z,0.40
2023-03-13T14:48:05.909Z,0.40
2023-03-13T14:50:38.470Z,1.30
2023-03-13T14:53:16.968Z,1.40
2023-03-13T14:55:48.513Z,2.30
2023-03-13T14:58:30.879Z,3.60
2023-03-13T15:01:01.783Z,0.63
2023-03-13T15:03:36.267Z,0.98
2023-03-13T15:06:22.474Z,0.98
2023-03-13T15:09:17.709Z,0.90
2023-03-13T15:11:58.069Z,0.50
2023-03-13T15:14:41.075Z,1.95
2023-03-13T15:17:18.375Z,2.50
2023-03-13T15:19:56.656Z,0.85
2023-03-13T15:22:32.822Z,0.80
2023-03-13T15:25:06.331Z,0.28
2023-03-13T15:27:38.304Z,0.47
2023-03-13T15:30:10.447Z,0.85
2023-03-13T15:32:44.044Z,0.25
2023-03-13T15:35:30.066Z,0.60
2023-03-13T15:38:02.940Z,0.50
2023-03-13T15:40:33.808Z,0.88
2023-03-13T15:43:04.595Z,0.63
2023-03-13T15:45:35.296Z,0.63
2023-03-13T15:48:06.923Z,0.75
2023-03-13T15:50:40.580Z,0.65
2023-03-13T15:53:21.049Z,0.55
2023-03-13T15:55:52.971Z,0.30
2023-03-13T15:58:24.660Z,0.50
2023-03-13T16:00:55.768Z,0.40
2023-03-13T16:03:28.618Z,1.25
2023-03-13T16:06:01.825Z,1.45
2023-03-13T16:08:36.091Z,1.33
2023-03-13T16:11:08.087Z,0.40
2023-03-13T16:13:38.946Z,1.42
2023-03-13T16:16:20.275Z,0.60
2023-03-13T16:18:52.450Z,1.50
2023-03-13T16:21:28.221Z,1.77
2023-03-13T16:23:59.309Z,0.40
2023-03-13T16:26:31.770Z,0.32
2023-03-13T16:29:02.967Z,0.40
2023-03-13T16:31:36.745Z,0.60
2023-03-13T16:34:08.255Z,1.85
2023-03-13T16:36:41.481Z,2.25
2023-03-13T16:39:17.887Z,0.40
2023-03-13T16:41:48.441Z,0.40
2023-03-13T16:44:19.274Z,2.08
2023-03-13T16:47:04.647Z,0.40
2023-03-13T16:49:36.404Z,2.17
2023-03-13T16:52:13.281Z,0.25
2023-03-13T16:54:44.772Z,0.52
2023-03-13T16:57:18.371Z,1.63
2023-03-13T16:59:49.326Z,0.85
2023-03-13T17:02:21.783Z,0.55
2023-03-13T17:04:52.642Z,0.52
2023-03-13T17:07:29.698Z,0.55
2023-03-13T17:10:00.639Z,0.40
2023-03-13T17:12:31.479Z,1.58
2023-03-13T17:15:02.299Z,0.70
2023-03-13T17:17:33.700Z,0.90
2023-03-13T17:20:05.616Z,0.90
2023-03-13T17:22:39.263Z,0.35
2023-03-13T17:25:10.958Z,1.33
2023-03-13T17:27:42.741Z,1.08
2023-03-13T17:30:21.895Z,0.57
2023-03-13T17:32:53.397Z,3.10
2023-03-13T17:35:24.793Z,0.57
2023-03-13T17:38:00.867Z,0.50
2023-03-13T17:40:33.019Z,2.08
2023-03-13T17:43:03.574Z,0.90
2023-03-13T17:45:36.915Z,0.40
2023-03-13T17:48:09.147Z,0.80
2023-03-13T17:50:39.876Z,1.50
2023-03-13T17:53:13.352Z,1.50
2023-03-13T17:55:44.024Z,0.23
2023-03-13T17:58:14.877Z,0.32
2023-03-13T18:00:47.619Z,1.25
2023-03-13T18:03:18.457Z,0.43
2023-03-13T18:05:49.127Z,0.77
2023-03-13T18:08:22.584Z,1.23
2023-03-13T18:10:53.477Z,1.30
2023-03-13T18:13:24.164Z,1.13
2023-03-13T18:15:55.119Z,1.27
2023-03-13T18:18:26.032Z,2.90
2023-03-13T18:20:57.549Z,1.75
2023-03-13T18:23:30.777Z,2.70
2023-03-13T18:26:01.910Z,0.80
2023-03-13T18:28:32.735Z,2.25
2023-03-13T18:31:03.339Z,1.75
2023-03-13T18:33:34.143Z,0.63
2023-03-13T18:36:05.409Z,0.95
2023-03-13T18:38:39.335Z,1.75
2023-03-13T18:43:46.224Z,1.20
2023-03-13T18:46:24.430Z,0.93
2023-03-13T18:48:58.533Z,1.17
2023-03-13T18:51:40.409Z,0.68
2023-03-13T18:54:13.995Z,0.65
2023-03-13T18:56:47.419Z,1.30
2023-03-13T18:59:22.232Z,1.05
2023-03-13T19:01:57.859Z,0.50
2023-03-13T19:04:28.747Z,0.60
2023-03-13T19:07:00.316Z,1.02
2023-03-13T19:09:49.011Z,1.58
2023-03-13T19:12:25.739Z,1.05
2023-03-13T19:14:56.405Z,1.65
2023-03-13T19:17:35.940Z,1.58
2023-03-13T19:20:08.205Z,1.05
2023-03-13T19:22:39.394Z,1.17
2023-03-13T19:25:19.967Z,1.23
2023-03-13T19:27:51.151Z,3.50
2023-03-13T19:30:34.691Z,2.72
2023-03-13T19:33:07.259Z,1.45
2023-03-13T19:35:41.115Z,0.93
2023-03-13T19:38:20.399Z,1.75
2023-03-13T19:40:54.699Z,0.50
2023-03-13T19:43:25.686Z,1.55
2023-03-13T19:46:03.795Z,1.60
2023-03-13T19:48:35.177Z,0.85
2023-03-13T19:51:09.127Z,1.13
2023-03-13T19:53:44.990Z,0.38
2023-03-13T19:56:25.670Z,2.25
2023-03-13T19:59:01.950Z,1.15
2023-03-13T20:01:35.439Z,0.98
2023-03-13T20:04:08.680Z,0.55
2023-03-13T20:06:42.880Z,0.67
2023-03-13T20:09:21.561Z,1.65
2023-03-13T20:11:58.770Z,1.40
2023-03-13T20:14:32.052Z,4.47
2023-03-13T20:17:05.496Z,2.08
2023-03-13T20:19:36.319Z,0.95
2023-03-13T20:22:09.784Z,0.70
2023-03-13T20:24:40.705Z,1.30
2023-03-13T20:27:14.166Z,0.57
2023-03-13T20:29:44.849Z,0.73
2023-03-13T20:32:15.626Z,1.67
2023-03-13T20:34:46.231Z,0.98
2023-03-13T20:37:16.997Z,0.50
2023-03-13T20:39:47.571Z,1.15
2023-03-13T20:42:21.083Z,0.77
2023-03-13T20:44:55.494Z,0.88
2023-03-13T20:47:26.130Z,0.50
2023-03-13T20:49:56.806Z,0.73
2023-03-13T20:52:27.598Z,0.82
2023-03-13T20:54:58.237Z,0.77
2023-03-13T20:57:31.398Z,0.50
2023-03-13T21:00:02.221Z,0.70
2023-03-13T21:02:33.149Z,1.48
2023-03-13T21:05:03.996Z,0.38
2023-03-13T21:07:35.026Z,1.45
2023-03-13T21:10:06.986Z,0.50
2023-03-13T21:12:40.404Z,0.80
2023-03-13T21:15:13.643Z,0.60
2023-03-13T21:17:44.833Z,0.70
2023-03-13T21:20:16.325Z,1.05
2023-03-13T21:22:47.111Z,0.30
2023-03-13T21:25:18.760Z,0.73
2023-03-13T21:27:52.284Z,0.25
2023-03-13T21:30:24.666Z,0.30
2023-03-13T21:32:55.558Z,0.35
2023-03-13T21:35:26.704Z,0.63
2023-03-13T21:37:57.511Z,0.50
2023-03-13T21:40:29.067Z,0.30
2023-03-13T21:43:04.190Z,0.30
2023-03-13T21:45:35.910Z,0.40
2023-03-13T21:48:09.738Z,0.57
2023-03-13T21:50:40.529Z,0.55
2023-03-13T21:53:11.308Z,0.55
2023-03-13T21:55:42.636Z,0.75
2023-03-13T21:58:15.974Z,0.65
2023-03-13T22:00:47.735Z,0.73
2023-03-13T22:03:18.761Z,0.50
2023-03-13T22:05:49.568Z,1.38
2023-03-13T22:08:20.639Z,0.38
2023-03-13T22:10:52.334Z,0.50
2023-03-13T22:13:25.625Z,0.30
2023-03-13T22:15:59.510Z,0.85
2023-03-13T22:18:30.437Z,0.55
2023-03-13T22:21:02.000Z,0.57
2023-03-13T22:23:36.094Z,0.65
2023-03-13T22:26:07.560Z,0.30
2023-03-13T22:28:41.609Z,0.63
2023-03-13T22:31:14.685Z,0.50
2023-03-13T22:33:48.563Z,0.40
2023-03-13T22:36:19.308Z,0.20
2023-03-13T22:38:49.958Z,0.20
2023-03-13T22:41:21.486Z,0.40
2023-03-13T22:43:54.685Z,0.60
2023-03-13T22:46:25.630Z,1.63
2023-03-13T22:48:56.463Z,1.88
2023-03-13T22:51:27.630Z,0.75
2023-03-13T22:53:58.466Z,0.43
2023-03-13T22:56:29.759Z,0.57
2023-03-13T22:59:03.745Z,1.38
2023-03-13T23:01:35.285Z,1.88
2023-03-13T23:04:06.321Z,0.57
2023-03-13T23:06:37.304Z,0.47
2023-03-13T23:09:08.751Z,0.57
2023-03-13T23:11:39.326Z,0.73
2023-03-13T23:14:12.831Z,0.30
2023-03-13T23:16:44.107Z,1.88
2023-03-13T23:19:17.772Z,0.50
2023-03-13T23:21:49.128Z,0.70
2023-03-13T23:24:20.008Z,1.35
2023-03-13T23:26:50.852Z,3.00
2023-03-13T23:29:27.169Z,0.45
2023-03-13T23:31:57.944Z,1.00
2023-03-13T23:34:29.159Z,0.52
2023-03-13T23:37:00.853Z,2.28
2023-03-13T23:39:32.149Z,1.25
2023-03-13T23:42:10.405Z,1.38
2023-03-13T23:44:48.492Z,1.83
2023-03-13T23:47:30.159Z,1.75
2023-03-13T23:50:12.086Z,3.22
2023-03-13T23:52:47.029Z,1.90
2023-03-13T23:55:22.027Z,1.58
2023-03-13T23:58:09.575Z,4.28
